createdAt,value
2018-12-19T00:00:09.685Z,95518.00
2018-12-19T00:02:38.890Z,95529.00
2018-12-19T00:07:47.391Z,95497.00
2018-12-19T00:10:16.591Z,95501.00
2018-12-19T00:12:45.742Z,95494.00
2018-12-19T00:15:14.904Z,95504.00
2018-12-19T00:20:24.805Z,95478.00
2018-12-19T00:22:53.972Z,95480.00
2018-12-19T00:25:23.186Z,95482.00
2018-12-19T00:30:31.738Z,95473.00
2018-12-19T00:33:00.838Z,95477.00
2018-12-19T00:38:09.013Z,95472.00
2018-12-19T00:48:11.137Z,95462.00
2018-12-19T00:53:18.472Z,95446.00
2018-12-19T00:58:26.599Z,95454.00
2018-12-19T01:00:55.776Z,95463.00
2018-12-19T01:03:25.050Z,95465.00
2018-12-19T01:05:54.191Z,95460.00
2018-12-19T01:08:23.424Z,95471.00
2018-12-19T01:10:52.572Z,95462.00
2018-12-19T01:13:22.880Z,95469.00
2018-12-19T01:15:52.012Z,95467.00
2018-12-19T01:18:21.132Z,95463.00
2018-12-19T01:20:50.337Z,95468.00
2018-12-19T01:23:19.701Z,95475.00
2018-12-19T01:25:49.136Z,95463.00
2018-12-19T01:28:18.391Z,95462.00
2018-12-19T01:30:47.504Z,95467.00
2018-12-19T01:33:17.720Z,95468.00
2018-12-19T01:35:46.871Z,95442.00
2018-12-19T01:38:17.553Z,95461.00
2018-12-19T01:40:46.673Z,95463.00
2018-12-19T01:45:54.964Z,95461.00
2018-12-19T01:51:01.781Z,95463.00
2018-12-19T01:53:30.937Z,95469.00
2018-12-19T01:56:00.428Z,95443.00
2018-12-19T02:01:07.665Z,95443.00
2018-12-19T02:03:36.804Z,95443.00
2018-12-19T02:08:45.113Z,95445.00
2018-12-19T02:11:14.342Z,95454.00
2018-12-19T02:13:43.596Z,95454.00
2018-12-19T02:18:52.631Z,95460.00
2018-12-19T02:21:21.865Z,95464.00
2018-12-19T02:23:51.168Z,95467.00
2018-12-19T02:28:58.937Z,95459.00
2018-12-19T02:31:27.972Z,95459.00
2018-12-19T02:36:35.974Z,95459.00
2018-12-19T02:39:08.857Z,95461.00
2018-12-19T02:44:17.220Z,95479.00
2018-12-19T02:46:46.453Z,95486.00
2018-12-19T02:51:53.871Z,95495.00
2018-12-19T02:54:23.384Z,95483.00
2018-12-19T02:56:52.480Z,95488.00
2018-12-19T02:59:21.607Z,95491.00
2018-12-19T03:01:50.721Z,95482.00
2018-12-19T03:04:19.955Z,95479.00
2018-12-19T03:06:49.111Z,95478.00
2018-12-19T03:09:18.312Z,95492.00
2018-12-19T03:11:47.430Z,95503.00
2018-12-19T03:14:16.605Z,95500.00
2018-12-19T03:16:45.832Z,95496.00
2018-12-19T03:21:54.039Z,95493.00
2018-12-19T03:24:23.584Z,95507.00
2018-12-19T03:29:32.727Z,95485.00
2018-12-19T03:34:40.950Z,95482.00
2018-12-19T03:37:10.065Z,95502.00
2018-12-19T03:39:39.278Z,95504.00
2018-12-19T03:42:09.670Z,95499.00
2018-12-19T03:44:38.896Z,95503.00
2018-12-19T03:47:08.107Z,95501.00
2018-12-19T03:52:15.031Z,95480.00
2018-12-19T03:54:44.744Z,95477.00
2018-12-19T03:57:14.932Z,95474.00
2018-12-19T03:59:56.083Z,95474.00
2018-12-19T04:02:25.227Z,95481.00
2018-12-19T04:04:54.372Z,95478.00
2018-12-19T04:10:02.789Z,95478.00
2018-12-19T04:12:31.972Z,95459.00
2018-12-19T04:15:01.301Z,95480.00
2018-12-19T04:17:30.488Z,95481.00
2018-12-19T04:19:59.705Z,95495.00
2018-12-19T04:22:28.831Z,95500.00
2018-12-19T04:24:57.982Z,95490.00
2018-12-19T04:27:27.301Z,95502.00
2018-12-19T04:29:56.741Z,95490.00
2018-12-19T04:32:26.337Z,95487.00
2018-12-19T04:34:55.487Z,95478.00
2018-12-19T04:37:24.692Z,95481.00
2018-12-19T04:39:53.834Z,95481.00
2018-12-19T04:42:23.005Z,95483.00
2018-12-19T04:44:52.176Z,95480.00
2018-12-19T04:47:22.305Z,95481.00
2018-12-19T04:49:51.491Z,95475.00
2018-12-19T04:52:20.568Z,95480.00
2018-12-19T04:54:49.761Z,95468.00
2018-12-19T04:59:57.145Z,95472.00
2018-12-19T05:02:26.295Z,95478.00
2018-12-19T05:04:55.520Z,95479.00
2018-12-19T05:07:25.001Z,95485.00
2018-12-19T05:09:54.212Z,95473.00
2018-12-19T05:12:24.472Z,95468.00
2018-12-19T05:14:53.721Z,95474.00
2018-12-19T05:17:22.868Z,95494.00
2018-12-19T05:22:32.155Z,95486.00
2018-12-19T05:25:01.488Z,95470.00
2018-12-19T05:27:30.652Z,95476.00
2018-12-19T05:32:38.936Z,95475.00
2018-12-19T05:35:08.320Z,95484.00
2018-12-19T05:37:38.578Z,95488.00
2018-12-19T05:40:09.236Z,95472.00
2018-12-19T05:42:38.457Z,95483.00
2018-12-19T05:45:09.124Z,95485.00
2018-12-19T05:47:38.398Z,95476.00
2018-12-19T05:50:08.884Z,95475.00
2018-12-19T05:52:38.088Z,95464.00
2018-12-19T05:55:07.417Z,95476.00
2018-12-19T06:00:15.291Z,95468.00
2018-12-19T06:02:44.381Z,95486.00
2018-12-19T06:05:13.524Z,95478.00
2018-12-19T06:07:43.648Z,95484.00
2018-12-19T06:12:51.165Z,95494.00
2018-12-19T06:15:20.295Z,95487.00
2018-12-19T06:20:28.089Z,95492.00
2018-12-19T06:22:57.238Z,95491.00
2018-12-19T06:25:26.592Z,95480.00
2018-12-19T06:27:56.566Z,95502.00
2018-12-19T06:30:26.484Z,95491.00
2018-12-19T06:32:55.717Z,95499.00
2018-12-19T06:35:24.862Z,95503.00
2018-12-19T06:40:33.156Z,95493.00
2018-12-19T06:43:02.241Z,95499.00
2018-12-19T06:45:31.405Z,95492.00
2018-12-19T06:48:02.005Z,95493.00
2018-12-19T06:50:31.132Z,95490.00
2018-12-19T06:53:00.249Z,95493.00
2018-12-19T06:55:30.529Z,95494.00
2018-12-19T06:57:59.675Z,95487.00
2018-12-19T07:03:06.958Z,95504.00
2018-12-19T07:05:36.202Z,95503.00
2018-12-19T07:08:05.368Z,95497.00
2018-12-19T07:10:39.062Z,95508.00
2018-12-19T07:13:05.543Z,95489.00
2018-12-19T07:15:34.872Z,95501.00
2018-12-19T07:18:04.037Z,95487.00
2018-12-19T07:20:33.176Z,95495.00
2018-12-19T07:23:02.419Z,95513.00
2018-12-19T07:25:31.651Z,95515.00
2018-12-19T07:30:39.959Z,95511.00
2018-12-19T07:33:09.297Z,95504.00
2018-12-19T07:35:38.435Z,95515.00
2018-12-19T07:38:07.513Z,95506.00
2018-12-19T07:40:36.858Z,95511.00
2018-12-19T07:43:06.166Z,95524.00
2018-12-19T07:48:14.911Z,95524.00
2018-12-19T07:53:22.421Z,95528.00
2018-12-19T07:55:51.925Z,95540.00
2018-12-19T07:58:21.298Z,95528.00
2018-12-19T08:00:50.553Z,95534.00
2018-12-19T08:03:19.764Z,95541.00
2018-12-19T08:05:48.923Z,95524.00
2018-12-19T08:08:18.882Z,95527.00
2018-12-19T08:10:52.123Z,95531.00
2018-12-19T08:13:19.281Z,95535.00
2018-12-19T08:15:48.501Z,95538.00
2018-12-19T08:18:24.308Z,95541.00
2018-12-19T08:20:53.362Z,95543.00
2018-12-19T08:23:22.616Z,95528.00
2018-12-19T08:25:51.906Z,95524.00
2018-12-19T08:28:20.992Z,95536.00
2018-12-19T08:30:50.084Z,95530.00
2018-12-19T08:33:19.225Z,95545.00
2018-12-19T08:35:48.378Z,95549.00
2018-12-19T08:38:17.434Z,95554.00
2018-12-19T08:40:47.496Z,95541.00
2018-12-19T08:43:18.591Z,95561.00
2018-12-19T08:45:48.168Z,95544.00
2018-12-19T08:48:19.187Z,95566.00
2018-12-19T08:50:48.306Z,95553.00
2018-12-19T08:53:18.996Z,95548.00
2018-12-19T08:55:48.368Z,95540.00
2018-12-19T08:58:17.827Z,95546.00
2018-12-19T09:03:28.839Z,95548.00
2018-12-19T09:08:37.182Z,95540.00
2018-12-19T09:11:06.525Z,95544.00
2018-12-19T09:13:35.726Z,95550.00
2018-12-19T09:16:05.205Z,95542.00
2018-12-19T09:18:34.678Z,95541.00
2018-12-19T09:21:04.005Z,95547.00
2018-12-19T09:23:33.276Z,95532.00
2018-12-19T09:26:03.743Z,95525.00
2018-12-19T09:28:34.031Z,95521.00
2018-12-19T09:31:03.254Z,95532.00
2018-12-19T09:33:32.561Z,95525.00
2018-12-19T09:36:01.676Z,95536.00
2018-12-19T09:38:30.753Z,95542.00
2018-12-19T09:40:59.957Z,95548.00
2018-12-19T09:43:29.093Z,95539.00
2018-12-19T09:45:58.423Z,95540.00
2018-12-19T09:51:05.916Z,95523.00
2018-12-19T09:53:35.060Z,95537.00
2018-12-19T09:56:04.137Z,95545.00
2018-12-19T09:58:33.342Z,95534.00
2018-12-19T10:01:05.263Z,95558.00
2018-12-19T10:03:33.757Z,95540.00
2018-12-19T10:06:02.970Z,95531.00
2018-12-19T10:08:32.145Z,95530.00
2018-12-19T10:11:01.354Z,95526.00
2018-12-19T10:13:30.558Z,95531.00
2018-12-19T10:15:59.651Z,95536.00
2018-12-19T10:18:28.846Z,95528.00
2018-12-19T10:20:58.196Z,95528.00
2018-12-19T10:23:27.472Z,95521.00
2018-12-19T10:26:02.026Z,95504.00
2018-12-19T10:28:34.828Z,95503.00
2018-12-19T10:31:03.973Z,95498.00
2018-12-19T10:33:33.028Z,95493.00
2018-12-19T10:36:02.136Z,95487.00
2018-12-19T10:38:31.353Z,95487.00
2018-12-19T10:41:00.998Z,95490.00
2018-12-19T10:43:30.136Z,95493.00
2018-12-19T10:45:59.272Z,95502.00
2018-12-19T10:48:28.360Z,95501.00
2018-12-19T10:53:36.580Z,95502.00
2018-12-19T10:56:05.802Z,95494.00
2018-12-19T10:58:36.818Z,95498.00
2018-12-19T11:03:45.512Z,95479.00
2018-12-19T11:08:59.256Z,95473.00
2018-12-19T11:11:32.274Z,95463.00
2018-12-19T11:13:59.608Z,95477.00
2018-12-19T11:19:07.937Z,95474.00
2018-12-19T11:24:16.152Z,95453.00
2018-12-19T11:26:45.483Z,95467.00
2018-12-19T11:29:14.824Z,95466.00
2018-12-19T11:31:44.110Z,95467.00
2018-12-19T11:34:13.180Z,95448.00
2018-12-19T11:36:43.388Z,95450.00
2018-12-19T11:39:12.535Z,95439.00
2018-12-19T11:41:41.636Z,95431.00
2018-12-19T11:44:11.000Z,95431.00
2018-12-19T11:46:40.201Z,95418.00
2018-12-19T11:49:09.446Z,95416.00
2018-12-19T11:51:38.517Z,95417.00
2018-12-19T11:56:46.221Z,95417.00
2018-12-19T11:59:15.465Z,95413.00
2018-12-19T12:01:44.641Z,95421.00
2018-12-19T12:04:13.851Z,95412.00
2018-12-19T12:06:43.130Z,95397.00
2018-12-19T12:09:12.275Z,95399.00
2018-12-19T12:11:45.595Z,95402.00
2018-12-19T12:16:51.832Z,95388.00
2018-12-19T12:19:22.276Z,95393.00
2018-12-19T12:21:51.423Z,95368.00
2018-12-19T12:24:20.527Z,95368.00
2018-12-19T12:26:50.700Z,95380.00
2018-12-19T12:29:20.587Z,95373.00
2018-12-19T12:31:50.572Z,95379.00
2018-12-19T12:34:20.680Z,95369.00
2018-12-19T12:36:50.712Z,95378.00
2018-12-19T12:39:20.920Z,95395.00
2018-12-19T12:44:30.330Z,95385.00
2018-12-19T12:46:59.561Z,95390.00
2018-12-19T12:49:28.668Z,95407.00
2018-12-19T12:54:36.924Z,95385.00
2018-12-19T12:57:06.762Z,95386.00
2018-12-19T12:59:35.885Z,95389.00
2018-12-19T13:02:04.992Z,95380.00
2018-12-19T13:04:34.089Z,95387.00
2018-12-19T13:07:03.232Z,95372.00
2018-12-19T13:09:32.394Z,95363.00
2018-12-19T13:12:01.552Z,95365.00
2018-12-19T13:14:30.865Z,95373.00
2018-12-19T13:17:00.152Z,95358.00
2018-12-19T13:19:29.235Z,95360.00
2018-12-19T13:21:59.680Z,95359.00
2018-12-19T13:24:28.845Z,95368.00
2018-12-19T13:26:58.079Z,95365.00
2018-12-19T13:29:27.388Z,95359.00
2018-12-19T13:31:56.522Z,95350.00
2018-12-19T13:34:25.720Z,95352.00
2018-12-19T13:39:33.944Z,95361.00
2018-12-19T13:42:05.700Z,95363.00
2018-12-19T13:44:34.293Z,95339.00
2018-12-19T13:49:41.150Z,95348.00
2018-12-19T13:52:10.543Z,95338.00
2018-12-19T13:54:39.716Z,95339.00
2018-12-19T13:57:08.952Z,95328.00
2018-12-19T13:59:38.128Z,95337.00
2018-12-19T14:02:07.372Z,95339.00
2018-12-19T14:04:36.738Z,95332.00
2018-12-19T14:07:06.955Z,95337.00
2018-12-19T14:09:36.209Z,95334.00
2018-12-19T14:12:12.126Z,95337.00
2018-12-19T14:14:38.451Z,95315.00
2018-12-19T14:17:07.904Z,95334.00
2018-12-19T14:19:37.244Z,95319.00
2018-12-19T14:22:06.428Z,95335.00
2018-12-19T14:24:35.489Z,95322.00
2018-12-19T14:27:04.688Z,95330.00
2018-12-19T14:29:33.772Z,95319.00
2018-12-19T14:32:02.868Z,95330.00
2018-12-19T14:34:31.985Z,95317.00
2018-12-19T14:37:01.158Z,95313.00
2018-12-19T14:39:30.396Z,95299.00
2018-12-19T14:41:59.528Z,95300.00
2018-12-19T14:44:28.720Z,95309.00
2018-12-19T14:49:37.768Z,95288.00
2018-12-19T14:52:08.497Z,95292.00
2018-12-19T14:54:37.613Z,95292.00
2018-12-19T14:57:06.762Z,95287.00
2018-12-19T14:59:35.996Z,95288.00
2018-12-19T15:02:05.308Z,95290.00
2018-12-19T15:07:13.742Z,95307.00
2018-12-19T15:09:42.910Z,95315.00
2018-12-19T15:12:12.025Z,95338.00
2018-12-19T15:14:41.095Z,95337.00
2018-12-19T15:17:14.000Z,95325.00
2018-12-19T15:19:42.297Z,95324.00
2018-12-19T15:22:11.408Z,95316.00
2018-12-19T15:24:41.597Z,95320.00
2018-12-19T15:27:10.796Z,95322.00
2018-12-19T15:29:40.163Z,95312.00
2018-12-19T15:32:09.247Z,95316.00
2018-12-19T15:34:38.892Z,95312.00
2018-12-19T15:37:08.132Z,95304.00
2018-12-19T15:39:37.316Z,95294.00
2018-12-19T15:44:45.148Z,95285.00
2018-12-19T15:49:52.091Z,95284.00
2018-12-19T15:52:21.287Z,95285.00
2018-12-19T15:54:50.432Z,95274.00
2018-12-19T15:57:19.510Z,95278.00
2018-12-19T15:59:48.703Z,95264.00
2018-12-19T16:02:18.147Z,95270.00
2018-12-19T16:04:47.300Z,95265.00
2018-12-19T16:07:16.569Z,95254.00
2018-12-19T16:12:24.873Z,95237.00
2018-12-19T16:14:53.917Z,95245.00
2018-12-19T16:17:23.502Z,95254.00
2018-12-19T16:22:33.427Z,95244.00
2018-12-19T16:25:02.560Z,95236.00
2018-12-19T16:27:31.754Z,95230.00
2018-12-19T16:30:00.986Z,95220.00
2018-12-19T16:32:30.104Z,95232.00
2018-12-19T16:34:59.177Z,95233.00
2018-12-19T16:40:07.267Z,95240.00
2018-12-19T16:42:36.458Z,95243.00
2018-12-19T16:45:06.611Z,95250.00
2018-12-19T16:47:35.717Z,95245.00
2018-12-19T16:50:06.275Z,95255.00
2018-12-19T16:55:13.741Z,95240.00
2018-12-19T16:57:44.105Z,95240.00
2018-12-19T17:00:13.239Z,95247.00
2018-12-19T17:02:42.349Z,95237.00
2018-12-19T17:05:12.753Z,95254.00
2018-12-19T17:07:41.896Z,95255.00
2018-12-19T17:10:11.110Z,95262.00
2018-12-19T17:15:20.941Z,95271.00
2018-12-19T17:17:50.033Z,95249.00
2018-12-19T17:20:19.152Z,95260.00
2018-12-19T17:22:49.255Z,95253.00
2018-12-19T17:27:57.601Z,95242.00
2018-12-19T17:30:27.886Z,95242.00
2018-12-19T17:32:56.974Z,95242.00
2018-12-19T17:35:26.404Z,95235.00
2018-12-19T17:37:55.596Z,95235.00
2018-12-19T17:40:24.920Z,95235.00
2018-12-19T17:42:59.412Z,95235.00
2018-12-19T17:45:26.706Z,95243.00
2018-12-19T17:50:34.168Z,95236.00
2018-12-19T17:53:03.364Z,95237.00
2018-12-19T17:55:32.496Z,95216.00
2018-12-19T17:58:01.598Z,95213.00
2018-12-19T18:03:09.509Z,95209.00
2018-12-19T18:05:38.691Z,95208.00
2018-12-19T18:08:07.821Z,95193.00
2018-12-19T18:13:16.154Z,95187.00
2018-12-19T18:15:45.477Z,95162.00
2018-12-19T18:18:14.591Z,95171.00
2018-12-19T18:20:43.851Z,95168.00
2018-12-19T18:23:12.977Z,95161.00
2018-12-19T18:25:42.132Z,95161.00
2018-12-19T18:28:11.245Z,95159.00
2018-12-19T18:33:19.060Z,95164.00
2018-12-19T18:35:48.348Z,95161.00
2018-12-19T18:38:18.109Z,95156.00
2018-12-19T18:40:48.384Z,95146.00
2018-12-19T18:43:17.934Z,95156.00
2018-12-19T18:45:47.188Z,95177.00
2018-12-19T18:50:55.405Z,95176.00
2018-12-19T18:56:04.316Z,95180.00
2018-12-19T18:58:34.940Z,95175.00
2018-12-19T19:01:04.327Z,95174.00
2018-12-19T19:03:33.419Z,95160.00
2018-12-19T19:06:03.942Z,95180.00
2018-12-19T19:11:12.216Z,95192.00
2018-12-19T19:13:41.468Z,95184.00
2018-12-19T19:16:10.525Z,95183.00
2018-12-19T19:18:39.631Z,95190.00
2018-12-19T19:21:08.787Z,95185.00
2018-12-19T19:23:37.908Z,95196.00
2018-12-19T19:26:07.173Z,95215.00
2018-12-19T19:28:36.269Z,95197.00
2018-12-19T19:31:07.487Z,95180.00
2018-12-19T19:33:36.661Z,95180.00
2018-12-19T19:36:06.000Z,95192.00
2018-12-19T19:38:36.378Z,95186.00
2018-12-19T19:41:05.541Z,95197.00
2018-12-19T19:46:13.937Z,95210.00
2018-12-19T19:51:21.410Z,95220.00
2018-12-19T19:53:50.729Z,95217.00
2018-12-19T19:56:19.836Z,95216.00
2018-12-19T19:58:49.051Z,95229.00
2018-12-19T20:01:18.148Z,95235.00
2018-12-19T20:03:47.324Z,95234.00
2018-12-19T20:06:16.516Z,95223.00
2018-12-19T20:11:25.324Z,95230.00
2018-12-19T20:13:54.444Z,95240.00
2018-12-19T20:16:23.598Z,95239.00
2018-12-19T20:18:52.764Z,95237.00
2018-12-19T20:21:21.978Z,95239.00
2018-12-19T20:23:51.336Z,95234.00
2018-12-19T20:26:20.756Z,95231.00
2018-12-19T20:31:30.729Z,95236.00
2018-12-19T20:33:59.839Z,95244.00
2018-12-19T20:36:28.997Z,95243.00
2018-12-19T20:38:58.129Z,95234.00
2018-12-19T20:44:09.824Z,95243.00
2018-12-19T20:46:39.057Z,95254.00
2018-12-19T20:49:08.339Z,95252.00
2018-12-19T20:51:37.502Z,95250.00
2018-12-19T20:56:45.841Z,95248.00
2018-12-19T21:01:53.057Z,95267.00
2018-12-19T21:04:22.232Z,95255.00
2018-12-19T21:06:51.260Z,95268.00
2018-12-19T21:09:20.522Z,95255.00
2018-12-19T21:14:29.065Z,95260.00
2018-12-19T21:17:03.610Z,95279.00
2018-12-19T21:22:12.205Z,95263.00
2018-12-19T21:24:41.404Z,95275.00
2018-12-19T21:27:10.692Z,95259.00
2018-12-19T21:29:39.943Z,95250.00
2018-12-19T21:32:10.413Z,95264.00
2018-12-19T21:34:39.597Z,95267.00
2018-12-19T21:37:08.752Z,95259.00
2018-12-19T21:39:37.901Z,95265.00
2018-12-19T21:42:07.184Z,95268.00
2018-12-19T21:44:36.365Z,95272.00
2018-12-19T21:47:05.496Z,95271.00
2018-12-19T21:49:34.649Z,95282.00
2018-12-19T21:52:05.313Z,95278.00
2018-12-19T21:54:34.500Z,95289.00
2018-12-19T21:59:41.844Z,95274.00
2018-12-19T22:04:50.303Z,95280.00
2018-12-19T22:07:19.562Z,95289.00
2018-12-19T22:09:48.709Z,95290.00
2018-12-19T22:12:18.024Z,95293.00
2018-12-19T22:14:47.368Z,95295.00
2018-12-19T22:17:21.714Z,95286.00
2018-12-19T22:19:50.820Z,95291.00
2018-12-19T22:22:20.050Z,95280.00
2018-12-19T22:27:27.092Z,95271.00
2018-12-19T22:29:56.435Z,95289.00
2018-12-19T22:35:06.693Z,95268.00
2018-12-19T22:37:35.880Z,95259.00
2018-12-19T22:40:06.326Z,95256.00
2018-12-19T22:42:35.536Z,95256.00
2018-12-19T22:45:05.649Z,95263.00
2018-12-19T22:47:34.867Z,95252.00
2018-12-19T22:50:04.894Z,95259.00
2018-12-19T22:52:34.567Z,95252.00
2018-12-19T22:57:42.061Z,95244.00
2018-12-19T23:00:16.875Z,95261.00
2018-12-19T23:02:52.068Z,95263.00
2018-12-19T23:05:26.486Z,95267.00
2018-12-19T23:07:55.699Z,95271.00
2018-12-19T23:13:04.493Z,95270.00
2018-12-19T23:15:33.658Z,95269.00
2018-12-19T23:18:08.147Z,95266.00
2018-12-19T23:20:37.374Z,95264.00
2018-12-19T23:23:08.028Z,95261.00
2018-12-19T23:25:37.237Z,95272.00
2018-12-19T23:28:06.608Z,95264.00
2018-12-19T23:30:35.829Z,95267.00
2018-12-19T23:35:44.363Z,95271.00
2018-12-19T23:38:13.695Z,95269.00
2018-12-19T23:43:22.075Z,95273.00
2018-12-19T23:45:51.561Z,95251.00
2018-12-19T23:48:21.006Z,95276.00
2018-12-19T23:53:28.371Z,95281.00
2018-12-19T23:55:57.477Z,95277.00
